Time;durP1;ratioP1;P1;durP2;ratioP2;P2;SDS_P1;SDS_P2;PMS_P1;PMS_P2;Temp;Humidity;BMP_temperature;BMP_pressure;BME280_temperature;BME280_humidity;BME280_pressure;Samples;Min_cycle;Max_cycle;Signal;HPM_P1;HPM_P2
2021/01/28 00:00:36;;;;;;;;;;;18.90;99.90;;;;;;4995960;28;19914;-79
2021/01/28 00:03:04;;;;;;;;;;;18.80;99.90;;;;;;4995936;28;20310;-87
2021/01/28 00:05:33;;;;;;;;;;;18.90;99.90;;;;;;4995427;28;19991;-84
2021/01/28 00:08:00;;;;;;;;;;;18.80;99.90;;;;;;4999555;28;19976;-87
2021/01/28 00:10:30;;;;;;;;;;;18.80;99.90;;;;;;4996655;28;20046;-82
2021/01/28 00:12:57;;;;;;;;;;;18.80;99.90;;;;;;4978980;28;20339;-85
2021/01/28 00:15:27;;;;;;;;;;;18.70;99.90;;;;;;4987569;28;19914;-82
2021/01/28 00:17:57;;;;;;;;;;;18.80;99.90;;;;;;4995732;28;20364;-84
2021/01/28 00:20:34;;;;;;;;;;;18.90;99.90;;;;;;4996298;28;20028;-86
2021/01/28 00:23:01;;;;;;;;;;;18.90;99.90;;;;;;4995122;28;19920;-81
2021/01/28 00:25:28;;;;;;;;;;;18.80;99.90;;;;;;4995639;28;19917;-86
2021/01/28 00:27:55;;;;;;;;;;;18.90;99.90;;;;;;4996301;28;19921;-78
2021/01/28 00:30:41;;;;;;;;;;;18.90;99.90;;;;;;4997115;28;19910;-85
2021/01/28 00:33:08;;;;;;;;;;;19.00;99.90;;;;;;4997659;28;20041;-83
2021/01/28 00:35:36;;;;;;;;;;;18.80;99.90;;;;;;4998098;28;19929;-85
2021/01/28 00:38:05;;;;;;;;;;;18.90;99.90;;;;;;4996793;28;19933;-86
2021/01/28 00:40:32;;;;;;;;;;;19.00;99.90;;;;;;4998107;28;19910;-88
2021/01/28 00:42:59;;;;;;;;;;;19.00;99.90;;;;;;4979068;28;19975;-87
2021/01/28 00:45:27;;;;;;;;;;;19.00;99.90;;;;;;4996411;28;19933;-87
2021/01/28 00:47:58;;;;;;;;;;;18.90;99.90;;;;;;4997961;28;19913;-87
2021/01/28 00:50:30;;;;;;;;;;;18.80;99.90;;;;;;4998032;28;19976;-84
2021/01/28 00:53:03;;;;;;;;;;;18.80;99.90;;;;;;4996735;28;19928;-88
2021/01/28 00:55:30;;;;;;;;;;;18.80;99.90;;;;;;4979280;28;19914;-85
2021/01/28 00:57:56;;;;;;;;;;;18.80;99.90;;;;;;4965773;28;19918;-84
2021/01/28 01:00:29;;;;;;;;;;;18.80;99.90;;;;;;4994545;28;19917;-87
2021/01/28 01:02:56;;;;;;;;;;;18.80;99.90;;;;;;4986763;28;19913;-83
2021/01/28 01:05:24;;;;;;;;;;;18.70;99.90;;;;;;4997718;28;20353;-85
2021/01/28 01:07:51;;;;;;;;;;;18.80;99.90;;;;;;4996643;28;19910;-86
2021/01/28 01:10:25;;;;;;;;;;;18.80;99.90;;;;;;4996598;28;20358;-88
2021/01/28 01:12:52;;;;;;;;;;;18.80;99.90;;;;;;4994529;28;19913;-83
2021/01/28 01:15:18;;;;;;;;;;;18.90;99.90;;;;;;4978021;28;19917;-86
2021/01/28 01:17:45;;;;;;;;;;;18.80;99.90;;;;;;4997008;28;19947;-86
2021/01/28 01:20:12;;;;;;;;;;;18.90;99.90;;;;;;4994994;28;19952;-88
2021/01/28 01:22:39;;;;;;;;;;;19.00;99.90;;;;;;4994621;28;19914;-83
2021/01/28 01:25:08;;;;;;;;;;;19.00;99.90;;;;;;4995496;28;19914;-81
2021/01/28 01:27:34;;;;;;;;;;;19.10;99.90;;;;;;4993504;28;19957;-81
2021/01/28 01:30:01;;;;;;;;;;;19.10;99.90;;;;;;4992757;28;19914;-84
2021/01/28 01:32:28;;;;;;;;;;;19.20;99.90;;;;;;4975993;28;20300;-84
2021/01/28 01:34:55;;;;;;;;;;;19.30;99.90;;;;;;4995070;28;19916;-83
2021/01/28 01:37:22;;;;;;;;;;;19.50;99.90;;;;;;4966787;28;19971;-85
2021/01/28 01:39:48;;;;;;;;;;;19.50;99.90;;;;;;4990376;28;19921;-83
2021/01/28 01:42:15;;;;;;;;;;;19.50;99.90;;;;;;4999253;28;19917;-80
2021/01/28 01:44:42;;;;;;;;;;;19.50;99.90;;;;;;5005603;28;19910;-85
2021/01/28 01:47:14;;;;;;;;;;;19.70;99.90;;;;;;5000082;28;19914;-82
2021/01/28 01:49:43;;;;;;;;;;;19.80;99.90;;;;;;4986271;28;19977;-81
2021/01/28 01:52:10;;;;;;;;;;;19.80;99.90;;;;;;4982026;28;19910;-81
2021/01/28 01:54:37;;;;;;;;;;;19.90;99.90;;;;;;4996878;28;19921;-83
2021/01/28 01:57:09;;;;;;;;;;;20.00;99.90;;;;;;5004366;28;19926;-81
2021/01/28 01:59:48;;;;;;;;;;;20.20;99.90;;;;;;5005987;28;19917;-81
2021/01/28 02:02:17;;;;;;;;;;;20.30;99.90;;;;;;5004856;28;19960;-84
2021/01/28 02:04:44;;;;;;;;;;;20.40;99.90;;;;;;5004089;28;19985;-82
2021/01/28 02:07:24;;;;;;;;;;;20.50;99.90;;;;;;5004559;28;19965;-85
2021/01/28 02:09:51;;;;;;;;;;;20.60;99.90;;;;;;5007769;28;19917;-87
2021/01/28 02:12:18;;;;;;;;;;;20.60;99.90;;;;;;5000188;28;19980;-88
2021/01/28 02:14:46;;;;;;;;;;;20.70;99.90;;;;;;5002137;28;19977;-85
2021/01/28 02:17:21;;;;;;;;;;;20.80;99.90;;;;;;4994793;28;19925;-87
2021/01/28 02:19:56;;;;;;;;;;;20.80;99.90;;;;;;4980873;28;19956;-82
2021/01/28 02:22:43;;;;;;;;;;;20.80;99.90;;;;;;4989487;28;19918;-84
2021/01/28 02:25:28;;;;;;;;;;;20.90;99.90;;;;;;4966734;28;19914;-82
2021/01/28 02:28:00;;;;;;;;;;;21.00;99.90;;;;;;4989721;28;19921;-80
2021/01/28 02:30:28;;;;;;;;;;;21.00;99.90;;;;;;4995505;28;19960;-80
2021/01/28 02:32:56;;;;;;;;;;;21.00;99.90;;;;;;5004537;28;20349;-81
2021/01/28 02:35:27;;;;;;;;;;;21.10;99.90;;;;;;4981556;28;19925;-80
2021/01/28 02:37:54;;;;;;;;;;;21.10;99.90;;;;;;4995917;28;20024;-86
2021/01/28 02:40:23;;;;;;;;;;;21.20;99.90;;;;;;4997804;28;19932;-82
2021/01/28 02:42:50;;;;;;;;;;;21.20;99.90;;;;;;4997553;28;19914;-85
2021/01/28 02:45:18;;;;;;;;;;;21.30;99.90;;;;;;4978035;28;19949;-86
2021/01/28 02:47:50;;;;;;;;;;;21.30;99.90;;;;;;4998575;28;19921;-83
2021/01/28 02:50:16;;;;;;;;;;;21.30;99.90;;;;;;4997499;28;19970;-83
2021/01/28 02:52:43;;;;;;;;;;;21.40;99.90;;;;;;4995414;28;19922;-78
2021/01/28 02:55:13;;;;;;;;;;;21.40;99.90;;;;;;4996135;28;20121;-82
2021/01/28 02:57:40;;;;;;;;;;;21.30;99.90;;;;;;4993895;28;20068;-80
2021/01/28 03:00:26;;;;;;;;;;;21.40;99.90;;;;;;4992730;28;19956;-80
2021/01/28 03:02:53;;;;;;;;;;;21.30;99.90;;;;;;4996164;28;19933;-87
2021/01/28 03:05:20;;;;;;;;;;;21.40;99.90;;;;;;5010004;28;19914;-86
2021/01/28 03:07:50;;;;;;;;;;;21.50;99.90;;;;;;4995738;28;19921;-82
2021/01/28 03:10:19;;;;;;;;;;;21.40;99.90;;;;;;4995943;28;19914;-83
2021/01/28 03:12:46;;;;;;;;;;;21.40;99.90;;;;;;4988709;28;19968;-82
2021/01/28 03:15:14;;;;;;;;;;;21.40;99.90;;;;;;5001653;28;19918;-85
2021/01/28 03:17:40;;;;;;;;;;;21.50;99.90;;;;;;5003812;28;20380;-82
2021/01/28 03:20:12;;;;;;;;;;;21.50;99.90;;;;;;4988456;28;19921;-83
2021/01/28 03:22:39;;;;;;;;;;;21.60;99.90;;;;;;4998616;28;19936;-83
2021/01/28 03:25:06;;;;;;;;;;;21.60;99.90;;;;;;4982921;28;20353;-84
2021/01/28 03:27:33;;;;;;;;;;;21.60;99.90;;;;;;4983288;28;19977;-83
2021/01/28 03:30:00;;;;;;;;;;;21.70;99.90;;;;;;4995592;28;19914;-82
2021/01/28 03:32:26;;;;;;;;;;;21.80;99.90;;;;;;4997064;28;20435;-79
2021/01/28 03:34:56;;;;;;;;;;;21.80;99.90;;;;;;4996607;28;19914;-82
2021/01/28 03:37:22;;;;;;;;;;;21.80;99.90;;;;;;4996687;28;19921;-81
2021/01/28 03:39:49;;;;;;;;;;;21.90;99.90;;;;;;4994246;28;20307;-82
2021/01/28 03:42:16;;;;;;;;;;;21.80;99.90;;;;;;4996618;28;19961;-82
2021/01/28 03:44:42;;;;;;;;;;;21.70;99.90;;;;;;4995807;28;19913;-82
2021/01/28 03:47:09;;;;;;;;;;;21.70;99.90;;;;;;4977541;28;19911;-83
2021/01/28 03:49:36;;;;;;;;;;;21.70;99.90;;;;;;4989061;28;19914;-82
2021/01/28 03:52:02;;;;;;;;;;;21.60;99.90;;;;;;4977967;28;19913;-83
2021/01/28 03:54:29;;;;;;;;;;;21.60;99.90;;;;;;4995206;28;19930;-81
2021/01/28 03:56:56;;;;;;;;;;;21.60;99.90;;;;;;4994542;28;19918;-80
2021/01/28 03:59:22;;;;;;;;;;;21.50;99.90;;;;;;4974865;28;20274;-83
2021/01/28 04:01:49;;;;;;;;;;;21.30;99.90;;;;;;4995924;28;19918;-81
2021/01/28 04:04:16;;;;;;;;;;;21.10;99.90;;;;;;4986101;28;19917;-82
2021/01/28 04:06:42;;;;;;;;;;;21.10;99.90;;;;;;4982075;28;19914;-82
2021/01/28 04:09:11;;;;;;;;;;;21.00;99.90;;;;;;4988766;28;19964;-81
2021/01/28 04:11:37;;;;;;;;;;;20.80;99.90;;;;;;4994524;28;20361;-84
2021/01/28 04:14:04;;;;;;;;;;;20.80;99.90;;;;;;4992285;28;19918;-82
2021/01/28 04:16:31;;;;;;;;;;;20.70;99.90;;;;;;4983976;28;19914;-82
2021/01/28 04:18:57;;;;;;;;;;;20.80;99.90;;;;;;4986196;28;19989;-83
2021/01/28 04:21:24;;;;;;;;;;;20.80;99.90;;;;;;4985174;28;20266;-82
2021/01/28 04:23:51;;;;;;;;;;;20.80;99.90;;;;;;4988455;28;20009;-85
2021/01/28 04:26:17;;;;;;;;;;;20.70;99.90;;;;;;4990863;28;19979;-81
2021/01/28 04:28:44;;;;;;;;;;;20.60;99.90;;;;;;4995439;28;19925;-82
2021/01/28 04:31:11;;;;;;;;;;;20.70;99.90;;;;;;4994823;28;19910;-82
2021/01/28 04:33:37;;;;;;;;;;;20.70;99.90;;;;;;4992528;28;19929;-82
2021/01/28 04:36:04;;;;;;;;;;;20.80;99.90;;;;;;4991968;28;19918;-81
2021/01/28 04:38:31;;;;;;;;;;;20.80;99.90;;;;;;4994598;28;20288;-82
2021/01/28 04:41:21;;;;;;;;;;;20.90;99.90;;;;;;4999857;28;19980;-84
2021/01/28 04:43:49;;;;;;;;;;;20.90;99.90;;;;;;5001449;28;19976;-81
2021/01/28 04:46:23;;;;;;;;;;;20.90;99.90;;;;;;5017264;28;19929;-81
2021/01/28 04:48:49;;;;;;;;;;;20.80;99.90;;;;;;5015139;28;19937;-82
2021/01/28 04:51:16;;;;;;;;;;;20.70;99.90;;;;;;5009704;28;19910;-82
2021/01/28 04:53:52;;;;;;;;;;;20.80;99.90;;;;;;5011358;28;19938;-80
2021/01/28 04:56:23;;;;;;;;;;;20.80;99.90;;;;;;5013156;28;19945;-82
2021/01/28 04:59:07;;;;;;;;;;;20.80;99.90;;;;;;5006916;28;20294;-81
2021/01/28 05:01:34;;;;;;;;;;;20.80;99.90;;;;;;5007220;28;19918;-80
2021/01/28 05:04:03;;;;;;;;;;;20.90;99.90;;;;;;5002239;28;19924;-82
2021/01/28 05:06:29;;;;;;;;;;;20.90;99.90;;;;;;5002061;28;19914;-82
2021/01/28 05:08:56;;;;;;;;;;;20.90;99.90;;;;;;4997727;28;19917;-81
2021/01/28 05:11:30;;;;;;;;;;;21.00;99.90;;;;;;4996443;28;20685;-85
2021/01/28 05:14:14;;;;;;;;;;;21.10;99.90;;;;;;4994095;28;20447;-82
2021/01/28 05:16:46;;;;;;;;;;;21.30;99.90;;;;;;4974655;28;20360;-81
2021/01/28 05:19:28;;;;;;;;;;;21.40;99.90;;;;;;4986555;28;19922;-82
2021/01/28 05:22:04;;;;;;;;;;;21.40;99.90;;;;;;4975477;28;20249;-82
2021/01/28 05:24:31;;;;;;;;;;;21.40;99.90;;;;;;4993162;28;19914;-80
2021/01/28 05:27:09;;;;;;;;;;;21.40;99.90;;;;;;4993759;28;19910;-81
2021/01/28 05:29:38;;;;;;;;;;;21.30;99.90;;;;;;4992609;28;19918;-82
2021/01/28 05:32:11;;;;;;;;;;;21.30;99.90;;;;;;4999427;28;19914;-81
2021/01/28 05:34:37;;;;;;;;;;;21.30;99.90;;;;;;4993559;28;19913;-82
2021/01/28 05:37:28;;;;;;;;;;;21.40;99.90;;;;;;4992161;28;19949;-82
2021/01/28 05:40:09;;;;;;;;;;;21.30;99.90;;;;;;4992110;28;19937;-82
2021/01/28 05:42:41;;;;;;;;;;;21.20;99.90;;;;;;4993083;28;19949;-81
2021/01/28 05:45:30;;;;;;;;;;;21.10;99.90;;;;;;4992391;28;19918;-82
2021/01/28 05:48:35;;;;;;;;;;;21.00;99.90;;;;;;4987875;28;20360;-81
2021/01/28 05:51:13;;;;;;;;;;;20.90;99.90;;;;;;4924406;29;19929;-82
2021/01/28 05:53:40;;;;;;;;;;;20.70;99.90;;;;;;4982598;28;20012;-82
2021/01/28 05:56:17;;;;;;;;;;;20.70;99.90;;;;;;4989199;28;19917;-82
2021/01/28 05:58:55;;;;;;;;;;;20.70;99.90;;;;;;4988591;28;19972;-82
2021/01/28 06:01:40;;;;;;;;;;;20.70;99.90;;;;;;4990391;28;20694;-83
2021/01/28 06:04:17;;;;;;;;;;;20.80;99.90;;;;;;4989284;28;19928;-81
2021/01/28 06:06:47;;;;;;;;;;;20.80;99.90;;;;;;4988936;28;19922;-83
2021/01/28 06:09:16;;;;;;;;;;;20.80;99.90;;;;;;4991631;28;19977;-82
2021/01/28 06:11:52;;;;;;;;;;;20.70;99.90;;;;;;4992397;28;19983;-81
2021/01/28 06:14:18;;;;;;;;;;;20.70;99.90;;;;;;4993998;28;20031;-83
2021/01/28 06:16:57;;;;;;;;;;;20.70;99.90;;;;;;4992514;28;20277;-82
2021/01/28 06:19:46;;;;;;;;;;;20.70;99.90;;;;;;4991104;28;20285;-82
2021/01/28 06:22:35;;;;;;;;;;;20.60;99.90;;;;;;4986776;28;19922;-81
2021/01/28 06:25:07;;;;;;;;;;;20.70;99.90;;;;;;4987303;28;20470;-83
2021/01/28 06:27:36;;;;;;;;;;;20.50;99.90;;;;;;4982690;28;19921;-85
2021/01/28 06:30:12;;;;;;;;;;;20.40;99.90;;;;;;4976637;28;20030;-83
2021/01/28 06:32:44;;;;;;;;;;;20.20;99.90;;;;;;4991395;28;20005;-83
2021/01/28 06:35:11;;;;;;;;;;;20.10;99.90;;;;;;4991300;28;19913;-83
2021/01/28 06:37:43;;;;;;;;;;;20.10;99.90;;;;;;4989558;28;19929;-81
2021/01/28 06:40:13;;;;;;;;;;;19.90;99.90;;;;;;4987369;28;20629;-82
2021/01/28 06:42:47;;;;;;;;;;;19.70;99.90;;;;;;4981841;28;19914;-85
2021/01/28 06:45:22;;;;;;;;;;;19.60;99.90;;;;;;4990808;28;19918;-83
2021/01/28 06:47:54;;;;;;;;;;;19.50;99.90;;;;;;4991425;28;19914;-85
2021/01/28 06:50:21;;;;;;;;;;;19.50;99.90;;;;;;4991722;28;19918;-83
2021/01/28 06:52:53;;;;;;;;;;;19.60;99.90;;;;;;4991668;28;19918;-84
2021/01/28 06:55:26;;;;;;;;;;;19.60;99.90;;;;;;4991101;28;19921;-83
2021/01/28 06:58:09;;;;;;;;;;;19.60;99.90;;;;;;4983024;28;19945;-82
2021/01/28 07:00:49;;;;;;;;;;;19.70;99.90;;;;;;4993848;28;19910;-83
2021/01/28 07:03:16;;;;;;;;;;;19.70;99.90;;;;;;4992741;28;20381;-84
2021/01/28 07:05:45;;;;;;;;;;;19.70;99.90;;;;;;4993594;28;19917;-83
2021/01/28 07:08:21;;;;;;;;;;;19.70;99.90;;;;;;4992441;28;19940;-83
2021/01/28 07:10:48;;;;;;;;;;;19.70;99.90;;;;;;4994109;28;19921;-82
2021/01/28 07:13:19;;;;;;;;;;;19.70;99.90;;;;;;4991716;28;19925;-83
2021/01/28 07:15:47;;;;;;;;;;;19.80;99.90;;;;;;4984816;28;19958;-83
2021/01/28 07:18:30;;;;;;;;;;;19.80;99.90;;;;;;4987859;28;19921;-84
2021/01/28 07:21:06;;;;;;;;;;;19.80;99.90;;;;;;4978785;28;20407;-84
2021/01/28 07:23:40;;;;;;;;;;;19.90;99.90;;;;;;4991108;28;19922;-80
2021/01/28 07:26:07;;;;;;;;;;;19.80;99.90;;;;;;4994300;28;20100;-81
2021/01/28 07:28:34;;;;;;;;;;;19.80;99.90;;;;;;4992377;28;19921;-83
2021/01/28 07:31:06;;;;;;;;;;;19.80;99.90;;;;;;4993721;28;19921;-79
2021/01/28 07:33:33;;;;;;;;;;;19.80;99.90;;;;;;4992986;28;20186;-83
2021/01/28 07:36:20;;;;;;;;;;;19.70;99.90;;;;;;4992714;28;19918;-83
2021/01/28 07:38:52;;;;;;;;;;;19.70;99.90;;;;;;5004240;28;19917;-82
2021/01/28 07:41:26;;;;;;;;;;;19.50;99.90;;;;;;5010272;28;20496;-80
2021/01/28 07:43:54;;;;;;;;;;;19.50;99.90;;;;;;4991320;28;19913;-81
2021/01/28 07:46:27;;;;;;;;;;;19.40;99.90;;;;;;4993398;28;19917;-81
2021/01/28 07:49:12;;;;;;;;;;;19.40;99.90;;;;;;4986204;28;19918;-81
2021/01/28 07:51:43;;;;;;;;;;;19.30;99.90;;;;;;4993148;28;19940;-79
2021/01/28 07:54:25;;;;;;;;;;;19.20;99.90;;;;;;4986278;28;19930;-78
2021/01/28 07:56:58;;;;;;;;;;;19.10;99.90;;;;;;4991318;28;20021;-80
2021/01/28 07:59:36;;;;;;;;;;;19.20;99.90;;;;;;4991578;28;19921;-82
2021/01/28 08:02:24;;;;;;;;;;;19.10;99.90;;;;;;4975238;28;19976;-84
2021/01/28 08:04:54;;;;;;;;;;;19.10;99.90;;;;;;4994680;28;20296;-83
2021/01/28 08:07:23;;;;;;;;;;;19.10;99.90;;;;;;4993184;28;19917;-81
2021/01/28 08:09:54;;;;;;;;;;;19.10;99.90;;;;;;4987295;28;19922;-81
2021/01/28 08:12:26;;;;;;;;;;;19.10;99.90;;;;;;4984550;28;19917;-80
2021/01/28 08:14:53;;;;;;;;;;;19.00;99.90;;;;;;4995056;28;20361;-79
2021/01/28 08:17:24;;;;;;;;;;;18.90;99.90;;;;;;4994290;28;19914;-79
2021/01/28 08:19:51;;;;;;;;;;;18.90;99.90;;;;;;4977877;28;20369;-80
2021/01/28 08:22:21;;;;;;;;;;;18.90;99.90;;;;;;4994294;28;19909;-80
2021/01/28 08:24:55;;;;;;;;;;;18.80;99.90;;;;;;4993442;28;20280;-80
2021/01/28 08:27:34;;;;;;;;;;;18.80;99.90;;;;;;5009004;28;19917;-80
2021/01/28 08:30:15;;;;;;;;;;;18.80;99.90;;;;;;4995193;28;19913;-81
2021/01/28 08:32:43;;;;;;;;;;;18.90;99.90;;;;;;4993919;28;19917;-81
2021/01/28 08:35:36;;;;;;;;;;;18.90;99.90;;;;;;4985520;28;19972;-80
2021/01/28 08:38:07;;;;;;;;;;;18.80;99.90;;;;;;4987684;28;19922;-80
2021/01/28 08:40:35;;;;;;;;;;;18.80;99.90;;;;;;4994525;28;20270;-80
2021/01/28 08:43:13;;;;;;;;;;;18.90;99.90;;;;;;4992898;28;19910;-79
2021/01/28 08:45:40;;;;;;;;;;;18.90;99.90;;;;;;4993649;28;20377;-79
2021/01/28 08:48:13;;;;;;;;;;;19.00;99.90;;;;;;4976002;28;20084;-81
2021/01/28 08:50:41;;;;;;;;;;;18.90;99.90;;;;;;4994951;28;20368;-80
2021/01/28 08:53:15;;;;;;;;;;;18.90;99.90;;;;;;4994892;28;19985;-79
2021/01/28 08:55:42;;;;;;;;;;;19.00;99.90;;;;;;4993916;28;19964;-79
2021/01/28 08:58:17;;;;;;;;;;;19.00;99.90;;;;;;4994511;28;19934;-81
2021/01/28 09:00:46;;;;;;;;;;;19.00;99.90;;;;;;4989971;28;20429;-80
2021/01/28 09:03:16;;;;;;;;;;;19.10;99.90;;;;;;4993121;28;19920;-80
2021/01/28 09:05:42;;;;;;;;;;;19.10;99.90;;;;;;4988882;28;19918;-81
2021/01/28 09:08:22;;;;;;;;;;;19.10;99.90;;;;;;4993928;28;19910;-80
2021/01/28 09:10:49;;;;;;;;;;;19.10;99.90;;;;;;4992793;28;19917;-80
2021/01/28 09:13:25;;;;;;;;;;;19.20;99.90;;;;;;4992634;28;19949;-82
2021/01/28 09:16:10;;;;;;;;;;;19.20;99.90;;;;;;4983157;28;20352;-80
2021/01/28 09:18:39;;;;;;;;;;;19.10;99.90;;;;;;4991623;28;19921;-81
2021/01/28 09:21:34;;;;;;;;;;;19.10;99.90;;;;;;4993087;28;19920;-80
2021/01/28 09:24:04;;;;;;;;;;;19.10;99.90;;;;;;4986995;28;20375;-79
2021/01/28 09:26:35;;;;;;;;;;;19.10;99.90;;;;;;4991637;28;19914;-79
2021/01/28 09:29:31;;;;;;;;;;;19.10;99.90;;;;;;4991922;28;20361;-82
2021/01/28 09:32:06;;;;;;;;;;;19.10;99.90;;;;;;4992924;28;20383;-81
2021/01/28 09:34:33;;;;;;;;;;;19.10;99.90;;;;;;4992338;28;20012;-83
2021/01/28 09:37:04;;;;;;;;;;;19.10;99.90;;;;;;4991807;28;19928;-82
2021/01/28 09:39:45;;;;;;;;;;;19.20;99.90;;;;;;4993900;28;19946;-83
2021/01/28 09:42:33;;;;;;;;;;;19.10;99.90;;;;;;4977673;28;20434;-80
2021/01/28 09:45:08;;;;;;;;;;;18.90;99.90;;;;;;4993389;28;19914;-81
2021/01/28 09:47:35;;;;;;;;;;;18.90;99.90;;;;;;4990910;28;19917;-81
2021/01/28 09:50:14;;;;;;;;;;;18.90;99.90;;;;;;4993078;28;19914;-79
2021/01/28 09:52:47;;;;;;;;;;;18.90;99.90;;;;;;4970236;28;20265;-80
2021/01/28 09:55:18;;;;;;;;;;;18.90;99.90;;;;;;4993216;28;19928;-80
2021/01/28 09:57:44;;;;;;;;;;;18.80;99.90;;;;;;4991939;28;19922;-86
2021/01/28 10:00:14;;;;;;;;;;;18.80;99.90;;;;;;4992690;28;19914;-81
2021/01/28 10:02:45;;;;;;;;;;;18.80;99.90;;;;;;4992642;28;19914;-81
2021/01/28 10:05:13;;;;;;;;;;;18.70;99.90;;;;;;4992027;28;19914;-78
2021/01/28 10:07:40;;;;;;;;;;;18.70;99.90;;;;;;4993007;28;20013;-80
2021/01/28 10:10:10;;;;;;;;;;;18.70;99.90;;;;;;4993683;28;20345;-81
2021/01/28 10:12:37;;;;;;;;;;;18.80;99.90;;;;;;4999950;28;19917;-81
2021/01/28 10:15:06;;;;;;;;;;;18.80;99.90;;;;;;5001480;28;19918;-82
2021/01/28 10:17:35;;;;;;;;;;;18.80;99.90;;;;;;5002264;28;20001;-81
2021/01/28 10:20:06;;;;;;;;;;;18.80;99.90;;;;;;5000676;28;19964;-81
2021/01/28 10:22:34;;;;;;;;;;;18.90;99.90;;;;;;4999398;28;20376;-80
2021/01/28 10:25:08;;;;;;;;;;;18.90;99.90;;;;;;4992830;28;19994;-82
2021/01/28 10:27:36;;;;;;;;;;;19.00;99.90;;;;;;5002402;28;19910;-82
2021/01/28 10:30:05;;;;;;;;;;;19.00;99.90;;;;;;4996519;28;19989;-82
2021/01/28 10:32:42;;;;;;;;;;;19.00;99.90;;;;;;5000005;28;19916;-83
2021/01/28 10:35:42;;;;;;;;;;;19.10;99.90;;;;;;4987534;28;19918;-83
2021/01/28 10:38:10;;;;;;;;;;;19.10;99.90;;;;;;4999530;28;19957;-83
2021/01/28 10:40:36;;;;;;;;;;;19.10;99.90;;;;;;5000451;28;19921;-81
2021/01/28 10:43:05;;;;;;;;;;;19.30;99.90;;;;;;4993307;28;20305;-82
2021/01/28 10:45:34;;;;;;;;;;;19.30;99.90;;;;;;4993219;28;19910;-82
2021/01/28 10:48:02;;;;;;;;;;;19.20;99.90;;;;;;4993805;28;19917;-83
2021/01/28 10:50:29;;;;;;;;;;;19.10;99.90;;;;;;4998617;28;19917;-81
2021/01/28 10:52:56;;;;;;;;;;;19.10;99.90;;;;;;4996457;28;19930;-82
2021/01/28 10:55:23;;;;;;;;;;;19.10;99.90;;;;;;4992779;28;20292;-82
2021/01/28 10:57:50;;;;;;;;;;;19.20;99.90;;;;;;4987622;28;19997;-84
2021/01/28 11:00:17;;;;;;;;;;;19.20;99.90;;;;;;4999527;28;19914;-82
2021/01/28 11:02:43;;;;;;;;;;;19.10;99.90;;;;;;4984762;28;19920;-82
2021/01/28 11:05:15;;;;;;;;;;;19.10;99.90;;;;;;4995789;28;19921;-81
2021/01/28 11:07:45;;;;;;;;;;;19.10;99.90;;;;;;4997075;28;19910;-81
2021/01/28 11:10:13;;;;;;;;;;;19.10;99.90;;;;;;4997783;28;19910;-80
2021/01/28 11:12:39;;;;;;;;;;;19.10;99.90;;;;;;4995984;28;19910;-81
2021/01/28 11:15:07;;;;;;;;;;;19.10;99.90;;;;;;4994424;28;19926;-81
2021/01/28 11:17:33;;;;;;;;;;;19.10;99.90;;;;;;4994136;28;20288;-81
2021/01/28 11:20:00;;;;;;;;;;;19.20;99.90;;;;;;4997092;28;19914;-81
2021/01/28 11:22:27;;;;;;;;;;;19.10;99.90;;;;;;4978776;28;19909;-81
2021/01/28 11:24:53;;;;;;;;;;;19.10;99.90;;;;;;4996870;28;20008;-82
2021/01/28 11:27:27;;;;;;;;;;;19.10;99.90;;;;;;4996113;28;20373;-80
2021/01/28 11:29:54;;;;;;;;;;;19.10;99.90;;;;;;4963047;28;19921;-82
2021/01/28 11:35:33;;;;;;;;;;;19.10;99.90;;;;;;4921837;29;19942;-80
2021/01/28 11:38:00;;;;;;;;;;;19.10;99.90;;;;;;4982668;28;20281;-81
2021/01/28 11:40:34;;;;;;;;;;;19.10;99.90;;;;;;4997445;28;19924;-81
2021/01/28 11:43:04;;;;;;;;;;;19.10;99.90;;;;;;4999018;28;19914;-82
2021/01/28 11:45:52;;;;;;;;;;;19.20;99.90;;;;;;4997341;28;19917;-81
2021/01/28 11:48:20;;;;;;;;;;;19.20;99.90;;;;;;4997463;28;19938;-83
2021/01/28 11:50:51;;;;;;;;;;;19.30;99.90;;;;;;4996517;28;19989;-82
2021/01/28 11:53:22;;;;;;;;;;;19.30;99.90;;;;;;4994944;28;20380;-82
2021/01/28 11:55:50;;;;;;;;;;;19.40;99.90;;;;;;4995125;28;19910;-82
2021/01/28 11:58:19;;;;;;;;;;;19.40;99.90;;;;;;4977146;28;19918;-84
2021/01/28 12:00:46;;;;;;;;;;;19.40;99.90;;;;;;4991959;28;20348;-83
2021/01/28 12:03:13;;;;;;;;;;;19.40;99.90;;;;;;4994177;28;20404;-82
2021/01/28 12:05:39;;;;;;;;;;;19.40;99.90;;;;;;4994495;28;20000;-82
2021/01/28 12:08:06;;;;;;;;;;;19.40;99.90;;;;;;4994884;28;19960;-82
2021/01/28 12:10:33;;;;;;;;;;;19.40;99.90;;;;;;4995186;28;19914;-83
2021/01/28 12:13:00;;;;;;;;;;;19.50;99.90;;;;;;4995417;28;19913;-81
2021/01/28 12:15:27;;;;;;;;;;;19.50;99.90;;;;;;4995377;28;19921;-82
2021/01/28 12:17:54;;;;;;;;;;;19.60;99.90;;;;;;4995154;28;20641;-82
2021/01/28 12:20:23;;;;;;;;;;;19.60;99.90;;;;;;4994920;28;19987;-81
2021/01/28 12:22:50;;;;;;;;;;;19.70;99.90;;;;;;4976777;28;20280;-81
2021/01/28 12:25:16;;;;;;;;;;;19.70;99.90;;;;;;4994846;28;19914;-81
2021/01/28 12:27:43;;;;;;;;;;;19.70;99.90;;;;;;4995050;28;19910;-82
2021/01/28 12:30:11;;;;;;;;;;;19.80;99.90;;;;;;4995040;28;19940;-81
2021/01/28 12:32:37;;;;;;;;;;;19.80;99.90;;;;;;4994443;28;20336;-81
2021/01/28 12:35:05;;;;;;;;;;;19.90;99.90;;;;;;4994804;28;19964;-81
2021/01/28 12:37:31;;;;;;;;;;;19.90;99.90;;;;;;5001181;28;20336;-82
2021/01/28 12:39:58;;;;;;;;;;;19.90;99.90;;;;;;5008661;28;19914;-81
2021/01/28 12:42:25;;;;;;;;;;;19.90;99.90;;;;;;4995157;28;19913;-81
2021/01/28 12:44:52;;;;;;;;;;;19.90;99.90;;;;;;4994760;28;19914;-82
2021/01/28 12:47:19;;;;;;;;;;;19.80;99.90;;;;;;4994259;28;19991;-81
2021/01/28 12:49:46;;;;;;;;;;;19.80;99.90;;;;;;4994681;28;19925;-81
2021/01/28 12:52:13;;;;;;;;;;;19.80;99.90;;;;;;4994746;28;19914;-82
2021/01/28 12:54:40;;;;;;;;;;;19.90;99.90;;;;;;4994140;28;19929;-82
2021/01/28 12:57:07;;;;;;;;;;;19.90;99.90;;;;;;4994462;28;19917;-81
2021/01/28 12:59:34;;;;;;;;;;;19.90;99.90;;;;;;4994525;28;19933;-81
2021/01/28 13:02:00;;;;;;;;;;;19.90;99.90;;;;;;4994750;28;19916;-82
2021/01/28 13:04:27;;;;;;;;;;;19.80;99.90;;;;;;4993884;28;19913;-81
2021/01/28 13:06:54;;;;;;;;;;;19.90;99.90;;;;;;4993215;28;19918;-81
2021/01/28 13:09:20;;;;;;;;;;;19.90;99.90;;;;;;4994471;28;19973;-81
2021/01/28 13:11:47;;;;;;;;;;;19.80;99.90;;;;;;4994194;28;19909;-81
2021/01/28 13:14:14;;;;;;;;;;;19.80;99.90;;;;;;4993472;28;20020;-82
2021/01/28 13:16:41;;;;;;;;;;;19.90;99.90;;;;;;4994293;28;19910;-81
2021/01/28 13:19:07;;;;;;;;;;;19.80;99.90;;;;;;4993981;28;19914;-82
2021/01/28 13:21:34;;;;;;;;;;;19.90;99.90;;;;;;4994210;28;19918;-82
2021/01/28 13:24:00;;;;;;;;;;;19.90;99.90;;;;;;4993256;28;20044;-81
2021/01/28 13:26:27;;;;;;;;;;;19.90;99.90;;;;;;4994354;28;19910;-82
2021/01/28 13:28:54;;;;;;;;;;;19.90;99.90;;;;;;4994334;28;20009;-81
2021/01/28 13:31:20;;;;;;;;;;;19.80;99.90;;;;;;4976371;28;19910;-80
2021/01/28 13:33:47;;;;;;;;;;;19.90;99.90;;;;;;4986101;28;19918;-80
2021/01/28 13:36:14;;;;;;;;;;;19.90;99.90;;;;;;4994149;28;20288;-81
2021/01/28 13:38:42;;;;;;;;;;;19.90;99.90;;;;;;4994176;28;19917;-80
2021/01/28 13:41:09;;;;;;;;;;;19.90;99.90;;;;;;4993776;28;19917;-80
2021/01/28 13:43:36;;;;;;;;;;;20.00;99.90;;;;;;4975583;28;19910;-81
2021/01/28 13:46:03;;;;;;;;;;;20.00;99.90;;;;;;4974764;28;19937;-81
2021/01/28 13:48:30;;;;;;;;;;;19.90;99.90;;;;;;4977516;28;19929;-81
2021/01/28 13:50:57;;;;;;;;;;;19.80;99.90;;;;;;4993400;28;20318;-80
2021/01/28 13:53:24;;;;;;;;;;;19.60;99.90;;;;;;4993601;28;19968;-81
2021/01/28 13:55:50;;;;;;;;;;;19.50;99.90;;;;;;4993645;28;19910;-81
2021/01/28 13:58:17;;;;;;;;;;;19.40;99.90;;;;;;4993783;28;20013;-82
2021/01/28 14:00:44;;;;;;;;;;;19.40;99.90;;;;;;4993871;28;19914;-82
2021/01/28 14:03:11;;;;;;;;;;;19.30;99.90;;;;;;4993560;28;19946;-81
2021/01/28 14:05:37;;;;;;;;;;;19.30;99.90;;;;;;4993862;28;19910;-81
2021/01/28 14:08:04;;;;;;;;;;;19.20;99.90;;;;;;4993199;28;20268;-82
2021/01/28 14:10:32;;;;;;;;;;;19.10;99.90;;;;;;4993591;28;19918;-81
2021/01/28 14:12:59;;;;;;;;;;;19.00;99.90;;;;;;4993768;28;19978;-82
2021/01/28 14:15:28;;;;;;;;;;;19.00;99.90;;;;;;4993666;28;20353;-81
2021/01/28 14:17:54;;;;;;;;;;;19.00;99.90;;;;;;4993047;28;19918;-81
2021/01/28 14:20:22;;;;;;;;;;;19.00;99.90;;;;;;4974216;28;20234;-80
2021/01/28 14:22:49;;;;;;;;;;;18.90;99.90;;;;;;4974184;28;19910;-80
2021/01/28 14:25:17;;;;;;;;;;;18.90;99.90;;;;;;4994412;28;20012;-81
2021/01/28 14:27:43;;;;;;;;;;;19.00;99.90;;;;;;4997552;28;19914;-81
2021/01/28 14:30:11;;;;;;;;;;;19.00;99.90;;;;;;4997613;28;19909;-80
2021/01/28 14:32:38;;;;;;;;;;;19.00;99.90;;;;;;4997363;28;19917;-81
2021/01/28 14:35:06;;;;;;;;;;;19.00;99.90;;;;;;4997535;28;20247;-80
2021/01/28 14:37:33;;;;;;;;;;;18.90;99.90;;;;;;4997476;28;19918;-81